Time;durP1;ratioP1;P1;durP2;ratioP2;P2;SDS_P1;SDS_P2;PMS_P1;PMS_P2;Temp;Humidity;BMP_temperature;BMP_pressure;BME280_temperature;BME280_humidity;BME280_pressure;Samples;Min_cycle;Max_cycle;Signal;HPM_P1;HPM_P2
2022/03/11 00:01:03;;;;;;;;;10.50;10.25;;;;;20.36;33.41;100805.06;5079306;27;45954;-44
2022/03/11 00:03:29;;;;;;;;;9.75;9.50;;;;;20.34;33.38;100794.59;5079488;27;45309;-44
2022/03/11 00:05:54;;;;;;;;;13.75;12.50;;;;;20.36;33.37;100798.00;5079324;27;45348;-44
2022/03/11 00:08:20;;;;;;;;;10.50;10.25;;;;;20.34;33.34;100796.41;5079571;27;45304;-44
2022/03/11 00:10:45;;;;;;;;;11.00;8.75;;;;;20.36;33.43;100790.09;5079567;28;47230;-44
2022/03/11 00:13:11;;;;;;;;;13.00;10.00;;;;;20.35;33.17;100785.78;5079264;28;45356;-43
2022/03/11 00:15:37;;;;;;;;;13.50;9.25;;;;;20.35;33.64;100785.78;5077927;28;45319;-45
2022/03/11 00:18:03;;;;;;;;;12.50;11.50;;;;;20.35;33.60;100785.78;5079419;28;45535;-47
2022/03/11 00:20:29;;;;;;;;;11.75;10.75;;;;;20.35;33.13;100780.50;5079192;28;46223;-45
2022/03/11 00:22:54;;;;;;;;;15.75;13.00;;;;;20.35;33.42;100777.88;5079131;27;45273;-45
2022/03/11 00:25:21;;;;;;;;;13.00;11.00;;;;;20.35;33.05;100780.50;5079524;27;45492;-43
2022/03/11 00:27:47;;;;;;;;;10.50;10.00;;;;;20.34;33.13;100773.53;5079541;27;45500;-44
2022/03/11 00:30:13;;;;;;;;;10.00;10.00;;;;;20.35;33.40;100782.31;5077462;27;46963;-44
2022/03/11 00:32:38;;;;;;;;;13.75;12.00;;;;;20.34;33.72;100777.97;5079057;28;45753;-44
2022/03/11 00:35:09;;;;;;;;;12.50;10.50;;;;;20.33;33.61;100771.88;5079070;28;45223;-44
2022/03/11 00:37:35;;;;;;;;;11.25;10.25;;;;;20.33;33.36;100771.00;5078934;28;45437;-44
2022/03/11 00:40:00;;;;;;;;;14.25;11.00;;;;;20.33;33.63;100766.59;5078803;27;45448;-44
2022/03/11 00:42:27;;;;;;;;;10.25;10.25;;;;;20.32;33.52;100764.03;5078582;27;45370;-46
2022/03/11 00:44:52;;;;;;;;;9.75;9.75;;;;;20.32;33.14;100762.28;5078276;27;45519;-45
2022/03/11 00:47:18;;;;;;;;;14.00;11.00;;;;;20.32;33.60;100759.66;5079250;28;45538;-44
2022/03/11 00:49:43;;;;;;;;;10.50;10.25;;;;;20.32;33.53;100762.28;5077187;28;47691;-45
2022/03/11 00:52:09;;;;;;;;;11.75;10.75;;;;;20.32;33.16;100759.66;5078689;28;45282;-44
2022/03/11 00:54:34;;;;;;;;;13.50;13.50;;;;;20.32;33.20;100750.88;5077319;28;45257;-47
2022/03/11 00:56:59;;;;;;;;;9.75;9.50;;;;;20.31;33.41;100752.69;5077564;27;45484;-46
2022/03/11 00:59:25;;;;;;;;;11.50;11.50;;;;;20.31;33.62;100742.16;5078634;28;45675;-45
2022/03/11 01:01:50;;;;;;;;;11.50;9.25;;;;;20.30;33.63;100740.44;5078639;27;45350;-44
2022/03/11 01:04:16;;;;;;;;;12.75;10.50;;;;;20.31;33.54;100734.25;5078573;28;45350;-47
2022/03/11 01:06:41;;;;;;;;;12.00;12.00;;;;;20.30;33.61;100724.66;5078402;28;45468;-45
2022/03/11 01:09:07;;;;;;;;;10.75;10.75;;;;;20.30;33.28;100729.91;5076904;28;47314;-47
2022/03/11 01:11:32;;;;;;;;;12.25;11.75;;;;;20.31;33.35;100730.75;5078484;27;45436;-46
2022/03/11 01:13:58;;;;;;;;;13.75;11.50;;;;;20.29;33.37;100722.97;5077083;28;45580;-44
2022/03/11 01:16:24;;;;;;;;;12.00;10.00;;;;;20.29;33.66;100722.97;5078230;27;45453;-46
2022/03/11 01:18:50;;;;;;;;;15.75;12.25;;;;;20.31;33.99;100720.22;5078574;27;46068;-50
2022/03/11 01:21:16;;;;;;;;;12.00;9.25;;;;;20.29;34.13;100722.97;5078338;27;45811;-45
2022/03/11 01:23:41;;;;;;;;;11.75;11.50;;;;;20.32;33.62;100719.31;5078416;27;45370;-45
2022/03/11 01:26:07;;;;;;;;;13.75;11.75;;;;;20.29;34.14;100714.19;5078325;27;45537;-46
2022/03/11 01:28:33;;;;;;;;;13.25;13.25;;;;;20.30;33.71;100716.75;5077950;27;47101;-45
2022/03/11 01:30:59;;;;;;;;;10.25;10.25;;;;;20.28;34.03;100710.72;5078011;28;45234;-45
2022/03/11 01:33:24;;;;;;;;;12.50;10.75;;;;;20.30;33.80;100714.13;5076996;27;45698;-45
2022/03/11 01:35:49;;;;;;;;;13.75;11.75;;;;;20.31;33.99;100707.94;5078575;27;45510;-49
2022/03/11 01:38:15;;;;;;;;;12.50;10.25;;;;;20.29;33.76;100706.31;5077916;28;46723;-48
2022/03/11 01:40:40;;;;;;;;;11.75;10.00;;;;;20.31;34.22;100704.44;5076548;28;45342;-45
2022/03/11 01:43:13;;;;;;;;;10.50;10.50;;;;;20.30;33.82;100702.75;5078073;27;45468;-46
2022/03/11 01:45:38;;;;;;;;;11.25;11.25;;;;;20.30;34.17;100697.47;5078165;28;45260;-45
2022/03/11 01:48:04;;;;;;;;;13.75;11.25;;;;;20.31;34.01;100691.28;5077612;28;45611;-45
2022/03/11 01:50:30;;;;;;;;;13.50;10.00;;;;;20.30;33.95;100686.94;5077851;28;45405;-44
2022/03/11 01:52:55;;;;;;;;;10.25;10.00;;;;;20.30;34.27;100681.69;5077773;27;45334;-45
2022/03/11 01:55:21;;;;;;;;;11.50;10.75;;;;;20.30;34.03;100676.41;5076798;27;45422;-43
2022/03/11 01:57:47;;;;;;;;;11.75;9.50;;;;;20.30;34.16;100681.69;5076563;28;45477;-47
2022/03/11 02:00:13;;;;;;;;;9.00;9.00;;;;;20.30;33.77;100681.69;5077526;28;45280;-45
2022/03/11 02:02:38;;;;;;;;;10.75;10.75;;;;;20.29;34.08;100688.75;5077479;27;45367;-48
2022/03/11 02:05:04;;;;;;;;;12.50;11.25;;;;;20.30;34.41;100682.53;5077757;28;45370;-44
2022/03/11 02:07:30;;;;;;;;;11.25;11.25;;;;;20.29;34.11;100680.84;5077207;27;45833;-44
2022/03/11 02:09:56;;;;;;;;;10.00;10.00;;;;;20.28;34.29;100673.88;5077345;27;45197;-44
2022/03/11 02:12:30;;;;;;;;;10.75;9.50;;;;;20.29;33.93;100688.75;5076506;28;45364;-45
2022/03/11 02:14:55;;;;;;;;;11.50;9.75;;;;;20.27;33.99;100671.34;5077834;27;45343;-44
2022/03/11 02:17:21;;;;;;;;;14.00;13.00;;;;;20.27;34.15;100676.63;5077642;27;45921;-51
2022/03/11 02:19:46;;;;;;;;;11.75;11.00;;;;;20.28;33.83;100679.16;5077295;27;45318;-46
2022/03/11 02:22:15;;;;;;;;;9.50;8.50;;;;;20.28;34.30;100679.16;5077474;27;45510;-57
2022/03/11 02:24:40;;;;;;;;;11.25;10.00;;;;;20.27;34.16;100677.44;5077407;27;45392;-48
2022/03/11 02:27:05;;;;;;;;;8.75;8.00;;;;;20.25;34.04;100668.78;5077305;27;45400;-44
2022/03/11 02:29:31;;;;;;;;;9.25;7.50;;;;;20.27;34.70;100677.44;5076944;27;45417;-44
2022/03/11 02:31:57;;;;;;;;;14.00;11.00;;;;;20.28;34.36;100667.78;5076853;27;45456;-44
2022/03/11 02:34:22;;;;;;;;;11.25;9.00;;;;;20.27;34.34;100666.91;5077653;27;45477;-45
2022/03/11 02:36:47;;;;;;;;;10.25;10.25;;;;;20.27;34.53;100664.28;5076531;27;45422;-45
2022/03/11 02:39:13;;;;;;;;;9.25;8.25;;;;;20.28;34.28;100668.63;5076871;27;45324;-44
2022/03/11 02:41:41;;;;;;;;;10.25;10.00;;;;;20.28;34.66;100657.25;5077133;27;45508;-44
2022/03/11 02:44:06;;;;;;;;;15.25;12.50;;;;;20.26;34.34;100656.50;5077007;27;45389;-46
2022/03/11 02:46:32;;;;;;;;;11.75;9.75;;;;;20.26;34.47;100652.06;5075586;28;45336;-44
2022/03/11 02:48:57;;;;;;;;;11.25;9.25;;;;;20.28;34.49;100652.00;5075620;28;45201;-46
2022/03/11 02:51:23;;;;;;;;;10.75;9.50;;;;;20.27;34.88;100648.50;5077172;27;46347;-45
2022/03/11 02:53:48;;;;;;;;;14.50;12.00;;;;;20.26;34.31;100641.53;5075940;27;45583;-46
2022/03/11 02:56:15;;;;;;;;;11.00;9.00;;;;;20.27;34.39;100647.66;5076679;27;46033;-48
2022/03/11 02:58:40;;;;;;;;;15.50;11.00;;;;;20.26;35.00;100644.16;5076346;27;45390;-45
2022/03/11 03:01:07;;;;;;;;;10.25;10.00;;;;;20.26;34.63;100636.28;5076627;28;45333;-45
2022/03/11 03:03:32;;;;;;;;;12.50;10.75;;;;;20.27;34.82;100640.59;5076972;27;45425;-44
2022/03/11 03:05:58;;;;;;;;;10.00;9.75;;;;;20.25;34.67;100637.22;5076819;28;46267;-45
2022/03/11 03:08:23;;;;;;;;;10.25;8.50;;;;;20.24;35.02;100633.75;5076523;27;45449;-47
2022/03/11 03:10:49;;;;;;;;;12.25;11.75;;;;;20.23;34.76;100625.91;5076650;27;45467;-44
2022/03/11 03:13:14;;;;;;;;;10.75;8.75;;;;;20.24;34.56;100630.25;5075490;27;45558;-45
2022/03/11 03:15:40;;;;;;;;;10.25;8.75;;;;;20.22;34.67;100616.34;5076145;28;46101;-45
2022/03/11 03:18:06;;;;;;;;;9.50;8.00;;;;;20.22;34.53;100613.72;5074957;28;45246;-46
2022/03/11 03:20:31;;;;;;;;;9.25;9.25;;;;;20.22;34.38;100611.09;5076451;28;45251;-47
2022/03/11 03:22:57;;;;;;;;;10.00;10.00;;;;;20.21;34.87;100589.16;5076998;28;45215;-44
2022/03/11 03:25:24;;;;;;;;;9.25;9.25;;;;;20.22;34.78;100590.03;5076275;28;46187;-44
2022/03/11 03:27:49;;;;;;;;;12.00;9.25;;;;;20.21;34.57;100588.34;5076249;28;45342;-44
2022/03/11 03:30:15;;;;;;;;;10.50;10.00;;;;;20.20;34.64;100590.09;5073462;28;45524;-45
2022/03/11 03:32:42;;;;;;;;;9.75;9.00;;;;;20.21;34.74;100585.72;5075485;28;45405;-44
2022/03/11 03:35:09;;;;;;;;;11.00;9.50;;;;;20.21;34.76;100590.97;5075872;28;46222;-44
2022/03/11 03:37:34;;;;;;;;;10.75;9.50;;;;;20.20;34.58;100599.81;5076102;28;45388;-44
2022/03/11 03:39:59;;;;;;;;;11.25;9.50;;;;;20.20;34.37;100600.63;5074892;28;45378;-43
2022/03/11 03:42:26;;;;;;;;;11.50;8.25;;;;;20.20;34.30;100589.28;5076789;27;45223;-44
2022/03/11 03:44:53;;;;;;;;;10.25;9.00;;;;;20.19;34.85;100593.66;5076052;28;46352;-44
2022/03/11 03:47:19;;;;;;;;;9.00;9.00;;;;;20.20;35.14;100589.28;5075996;28;45378;-44
2022/03/11 03:49:45;;;;;;;;;12.25;8.50;;;;;20.19;34.97;100591.03;5076104;28;45423;-44
2022/03/11 03:52:12;;;;;;;;;9.25;9.25;;;;;20.20;34.93;100584.00;5076220;28;45463;-44
2022/03/11 03:54:41;;;;;;;;;10.00;9.00;;;;;20.20;34.73;100582.22;5075962;27;46249;-44
2022/03/11 03:57:07;;;;;;;;;12.00;10.50;;;;;20.20;34.90;100576.94;5075981;27;45213;-44
2022/03/11 03:59:33;;;;;;;;;14.75;9.50;;;;;20.20;34.47;100570.84;5075599;28;45532;-43
2022/03/11 04:01:59;;;;;;;;;7.50;7.50;;;;;20.20;35.06;100565.59;5076330;27;45231;-44
2022/03/11 04:04:25;;;;;;;;;9.25;9.25;;;;;20.19;34.46;100575.25;5075822;27;46323;-44
2022/03/11 04:06:50;;;;;;;;;12.75;9.50;;;;;20.20;34.60;100570.84;5075958;28;45802;-45
2022/03/11 04:09:15;;;;;;;;;11.00;10.25;;;;;20.19;34.99;100572.63;5074628;28;45260;-44
2022/03/11 04:11:41;;;;;;;;;10.00;8.25;;;;;20.18;34.54;100562.19;5076098;27;45493;-46
2022/03/11 04:14:07;;;;;;;;;7.75;7.25;;;;;20.18;35.12;100570.91;5074410;27;47502;-44
2022/03/11 04:16:33;;;;;;;;;13.75;9.75;;;;;20.18;34.84;100562.19;5075541;27;45445;-44
2022/03/11 04:18:59;;;;;;;;;9.50;9.50;;;;;20.17;34.94;100557.88;5074781;28;45532;-44
2022/03/11 04:21:25;;;;;;;;;10.00;9.00;;;;;20.18;34.84;100557.75;5078077;27;45538;-47
2022/03/11 04:23:51;;;;;;;;;15.25;10.75;;;;;20.18;34.75;100557.75;5078904;27;45451;-46
2022/03/11 04:26:17;;;;;;;;;9.50;9.00;;;;;20.18;34.89;100549.03;5079175;27;45846;-45
2022/03/11 04:28:43;;;;;;;;;12.25;10.50;;;;;20.18;35.00;100556.94;5078750;27;45337;-45
2022/03/11 04:31:10;;;;;;;;;9.25;8.25;;;;;20.17;35.01;100557.88;5079518;27;45291;-46
2022/03/11 04:33:36;;;;;;;;;12.75;8.75;;;;;20.18;35.04;100563.03;5077682;27;48643;-45
2022/03/11 04:36:03;;;;;;;;;8.00;8.00;;;;;20.18;34.64;100556.94;5079280;27;45806;-45
2022/03/11 04:38:29;;;;;;;;;10.00;9.75;;;;;20.17;34.68;100557.88;5079343;27;45343;-47
2022/03/11 04:40:55;;;;;;;;;11.25;8.00;;;;;20.16;34.65;100564.94;5079068;27;45555;-48
2022/03/11 04:43:20;;;;;;;;;11.75;9.50;;;;;20.15;34.85;100560.59;5078743;27;45316;-46
2022/03/11 04:45:46;;;;;;;;;9.75;9.75;;;;;20.16;34.65;100558.81;5078797;28;45275;-47
2022/03/11 04:48:12;;;;;;;;;10.50;9.50;;;;;20.16;34.72;100569.31;5078769;27;45326;-44
2022/03/11 04:50:38;;;;;;;;;7.25;7.25;;;;;20.15;35.05;100563.22;5078928;27;45418;-44
2022/03/11 04:53:03;;;;;;;;;9.75;9.75;;;;;20.15;34.89;100559.72;5078705;28;45327;-44
2022/03/11 04:55:29;;;;;;;;;8.25;8.25;;;;;20.14;34.68;100561.53;5078778;28;45157;-44
2022/03/11 04:57:55;;;;;;;;;7.25;6.25;;;;;20.14;34.54;100550.16;5078870;27;45232;-44
2022/03/11 05:00:20;;;;;;;;;7.50;7.50;;;;;20.12;35.05;100549.41;5078574;27;45366;-44
2022/03/11 05:02:46;;;;;;;;;6.00;6.00;;;;;20.11;34.79;100552.97;5078450;28;45376;-44
2022/03/11 05:05:13;;;;;;;;;9.00;8.00;;;;;20.11;34.87;100555.59;5078412;27;45487;-45
2022/03/11 05:07:39;;;;;;;;;9.25;7.00;;;;;20.11;34.83;100555.59;5078377;27;46140;-45
2022/03/11 05:10:06;;;;;;;;;8.75;8.50;;;;;20.13;34.33;100548.44;5078654;27;45422;-43
2022/03/11 05:12:31;;;;;;;;;7.50;7.50;;;;;20.13;34.62;100548.44;5078270;27;45274;-44
2022/03/11 05:14:57;;;;;;;;;9.00;9.00;;;;;20.12;34.48;100544.97;5078233;27;45322;-44
2022/03/11 05:17:22;;;;;;;;;8.50;7.00;;;;;20.12;34.63;100533.63;5078424;27;45441;-46
2022/03/11 05:19:48;;;;;;;;;9.25;9.25;;;;;20.10;34.56;100527.59;5078555;27;45589;-45
2022/03/11 05:22:13;;;;;;;;;9.25;9.00;;;;;20.10;34.89;100527.59;5078157;27;47052;-55
2022/03/11 05:24:39;;;;;;;;;6.25;6.00;;;;;20.10;34.68;100528.44;5078349;27;45256;-48
2022/03/11 05:27:06;;;;;;;;;8.75;8.75;;;;;20.10;34.78;100527.59;5078340;27;45213;-49
2022/03/11 05:29:32;;;;;;;;;7.75;7.75;;;;;20.10;34.99;100538.13;5078528;27;45363;-45
2022/03/11 05:31:58;;;;;;;;;7.75;7.00;;;;;20.07;35.07;100525.97;5076794;27;47239;-53
2022/03/11 05:34:24;;;;;;;;;11.25;8.25;;;;;20.08;34.88;100523.28;5077964;28;45362;-44
2022/03/11 05:36:49;;;;;;;;;9.00;8.00;;;;;20.07;35.06;100521.56;5077984;28;45329;-45
2022/03/11 05:39:15;;;;;;;;;8.25;8.00;;;;;20.06;34.66;100506.72;5078423;28;46030;-46
2022/03/11 05:41:40;;;;;;;;;9.50;7.25;;;;;20.08;34.76;100511.88;5077678;28;46747;-44
2022/03/11 05:44:06;;;;;;;;;12.25;10.00;;;;;20.07;34.64;100518.94;5077714;28;45432;-44
2022/03/11 05:46:32;;;;;;;;;9.00;7.25;;;;;20.07;34.65;100511.06;5078157;27;45283;-44
2022/03/11 05:48:57;;;;;;;;;7.75;6.75;;;;;20.07;34.73;100507.56;5077962;28;45295;-45
2022/03/11 05:51:22;;;;;;;;;9.75;7.00;;;;;20.06;34.50;100514.63;5077711;28;45439;-44
2022/03/11 05:53:48;;;;;;;;;8.25;8.25;;;;;20.07;35.17;100511.06;5077748;27;45330;-47
2022/03/11 05:56:13;;;;;;;;;8.50;7.75;;;;;20.06;34.84;100514.63;5077647;28;45446;-46
2022/03/11 05:58:38;;;;;;;;;2.75;2.75;;;;;20.06;34.90;100511.16;5077703;28;45470;-44
2022/03/11 06:01:04;;;;;;;;;8.50;8.50;;;;;20.06;34.65;100511.16;5077628;27;46564;-47
2022/03/11 06:03:30;;;;;;;;;7.00;6.25;;;;;20.06;34.60;100511.16;5077418;27;45256;-45
2022/03/11 06:05:55;;;;;;;;;7.50;6.25;;;;;20.06;34.78;100514.63;5077614;27;45524;-46
2022/03/11 06:08:21;;;;;;;;;6.75;6.75;;;;;20.06;34.85;100505.88;5076419;27;45559;-47
2022/03/11 06:10:47;;;;;;;;;8.50;7.25;;;;;20.04;35.17;100510.38;5077693;27;45393;-48
2022/03/11 06:13:14;;;;;;;;;8.00;8.00;;;;;20.06;34.79;100521.66;5077559;27;45969;-45
2022/03/11 06:15:41;;;;;;;;;7.75;6.00;;;;;20.04;35.11;100516.47;5077331;27;45384;-45
2022/03/11 06:18:07;;;;;;;;;8.25;6.00;;;;;20.04;34.67;100518.28;5078030;27;45350;-48
2022/03/11 06:20:32;;;;;;;;;7.00;7.00;;;;;20.04;34.88;100513.84;5077414;27;45394;-46
2022/03/11 06:22:58;;;;;;;;;10.50;7.00;;;;;20.04;35.04;100510.38;5077250;27;45443;-46
2022/03/11 06:25:23;;;;;;;;;6.25;6.00;;;;;20.03;34.85;100512.16;5077376;27;45400;-46
2022/03/11 06:27:49;;;;;;;;;7.50;7.50;;;;;20.04;35.11;100503.31;5077362;27;45321;-45
2022/03/11 06:30:14;;;;;;;;;7.25;5.75;;;;;20.04;35.17;100505.97;5076806;27;45419;-47
2022/03/11 06:32:41;;;;;;;;;8.00;8.00;;;;;20.00;35.27;100504.47;5077090;28;45400;-48
2022/03/11 06:35:08;;;;;;;;;9.50;6.25;;;;;20.04;34.90;100497.22;5077441;28;45304;-46
2022/03/11 06:37:33;;;;;;;;;6.25;6.00;;;;;20.05;35.06;100505.03;5077753;27;45335;-44
2022/03/11 06:39:59;;;;;;;;;7.50;6.00;;;;;20.04;35.74;100500.69;5077102;28;46162;-47
2022/03/11 06:42:24;;;;;;;;;6.00;5.00;;;;;20.07;35.57;100504.91;5077174;28;45382;-45
2022/03/11 06:44:50;;;;;;;;;13.00;11.00;;;;;20.06;35.17;100506.72;5076665;28;45848;-44
2022/03/11 06:47:15;;;;;;;;;15.25;12.50;;;;;20.06;35.30;100506.72;5077158;27;45609;-46
2022/03/11 06:49:40;;;;;;;;;13.50;11.75;;;;;20.07;35.47;100500.53;5075442;28;46009;-45
2022/03/11 06:52:06;;;;;;;;;12.50;11.50;;;;;20.05;35.83;100499.75;5077210;28;45149;-43
2022/03/11 06:54:32;;;;;;;;;11.25;10.25;;;;;20.03;34.86;100501.63;5076380;28;45560;-42
2022/03/11 06:56:57;;;;;;;;;11.25;9.75;;;;;20.04;34.74;100499.88;5077057;28;45512;-48
2022/03/11 06:59:22;;;;;;;;;13.00;10.00;;;;;19.99;34.90;100501.91;5076731;28;47668;-46
2022/03/11 07:01:48;;;;;;;;;11.00;10.50;;;;;19.89;34.88;100498.97;5076587;28;45337;-47
2022/03/11 07:04:13;;;;;;;;;9.50;7.75;;;;;19.83;34.68;100491.41;5076856;28;45285;-47
2022/03/11 07:06:38;;;;;;;;;10.00;8.00;;;;;19.74;34.63;100491.00;5077381;28;45369;-45
2022/03/11 07:09:04;;;;;;;;;8.75;7.50;;;;;19.69;34.82;100498.28;5076514;27;45270;-44
2022/03/11 07:11:32;;;;;;;;;10.75;7.25;;;;;19.63;34.54;100504.75;5076592;28;45282;-46
2022/03/11 07:13:57;;;;;;;;;9.75;6.25;;;;;19.59;35.05;100507.63;5076670;28;45350;-46
2022/03/11 07:16:22;;;;;;;;;6.25;6.25;;;;;19.57;34.20;100493.72;5076543;28;45306;-46
2022/03/11 07:18:48;;;;;;;;;8.50;7.50;;;;;19.53;34.83;100503.56;5076566;28;45408;-48
2022/03/11 07:21:13;;;;;;;;;9.00;8.00;;;;;19.51;34.54;100494.09;5076611;27;45414;-48
2022/03/11 07:23:39;;;;;;;;;7.25;6.75;;;;;19.46;34.65;100487.28;5076710;28;45537;-46
2022/03/11 07:26:04;;;;;;;;;8.75;8.00;;;;;19.42;34.74;100488.41;5076774;27;45512;-48
2022/03/11 07:28:29;;;;;;;;;7.50;6.75;;;;;19.35;34.57;100479.16;5076300;28;46405;-46
2022/03/11 07:30:55;;;;;;;;;8.75;6.75;;;;;19.37;34.57;100477.31;5075166;27;45476;-48
2022/03/11 07:33:21;;;;;;;;;8.00;6.50;;;;;19.38;34.12;100481.63;5076557;28;45323;-50
2022/03/11 07:35:46;;;;;;;;;7.50;4.50;;;;;19.36;34.13;100478.22;5076653;28;45549;-46
2022/03/11 07:38:12;;;;;;;;;6.50;6.25;;;;;19.33;34.55;100481.06;5074940;28;48176;-48
2022/03/11 07:40:37;;;;;;;;;5.00;5.00;;;;;19.31;34.49;100469.78;5076466;28;45183;-45
2022/03/11 07:43:03;;;;;;;;;7.25;6.25;;;;;19.26;34.63;100471.81;5075098;28;45243;-48
2022/03/11 07:45:28;;;;;;;;;8.75;7.00;;;;;19.25;34.19;100470.09;5076357;28;45654;-50
2022/03/11 07:47:54;;;;;;;;;6.50;6.50;;;;;19.22;34.50;100459.78;5075969;28;45628;-49
2022/03/11 07:50:19;;;;;;;;;7.75;6.00;;;;;19.21;34.55;100463.34;5075964;28;45377;-46
2022/03/11 07:52:45;;;;;;;;;6.25;6.25;;;;;19.18;34.51;100461.75;5076308;28;45299;-50
2022/03/11 07:55:10;;;;;;;;;5.25;4.75;;;;;19.18;34.44;100461.75;5075261;28;45553;-44
2022/03/11 07:57:36;;;;;;;;;5.25;5.25;;;;;19.14;34.30;100453.16;5079435;27;46291;-50
2022/03/11 08:00:10;;;;;;;;;6.75;6.75;;;;;19.13;34.30;100451.47;5079274;27;45413;-47
2022/03/11 08:02:36;;;;;;;;;6.50;6.50;;;;;19.18;34.60;100450.38;5079682;27;45409;-47
2022/03/11 08:05:03;;;;;;;;;6.75;5.50;;;;;19.21;34.84;100451.03;5079780;27;45346;-43
2022/03/11 08:07:28;;;;;;;;;6.75;5.50;;;;;19.26;34.65;100451.66;5079399;27;45640;-44
2022/03/11 08:09:54;;;;;;;;;7.50;7.00;;;;;19.28;34.80;100441.91;5079311;27;45345;-43
2022/03/11 08:12:20;;;;;;;;;5.75;5.75;;;;;19.31;34.64;100435.63;5079559;27;45730;-45
2022/03/11 08:14:46;;;;;;;;;9.50;5.00;;;;;19.33;34.88;100444.28;5079302;27;45465;-44
2022/03/11 08:17:11;;;;;;;;;5.00;5.00;;;;;19.33;34.60;100444.28;5079573;27;46506;-47
2022/03/11 08:19:37;;;;;;;;;4.25;4.25;;;;;19.33;35.02;100433.75;5079402;27;45248;-45
2022/03/11 08:22:03;;;;;;;;;5.75;4.25;;;;;19.35;34.36;100436.28;5079437;27;45261;-46
2022/03/11 08:24:29;;;;;;;;;5.00;4.00;;;;;19.36;34.72;100430.94;5079052;27;45551;-46
2022/03/11 08:26:55;;;;;;;;;7.00;6.00;;;;;19.36;34.74;100432.72;5079013;27;45196;-45
2022/03/11 08:29:20;;;;;;;;;6.25;5.25;;;;;19.39;35.55;100430.75;5078983;28;45272;-43
2022/03/11 08:31:47;;;;;;;;;9.50;5.75;;;;;19.43;36.36;100428.81;5077741;28;45587;-47
2022/03/11 08:34:12;;;;;;;;;4.50;4.50;;;;;19.46;36.39;100420.75;5079541;27;45392;-46
2022/03/11 08:36:39;;;;;;;;;6.00;4.00;;;;;19.49;36.49;100415.31;5079108;27;47102;-47
2022/03/11 08:39:05;;;;;;;;;4.25;4.25;;;;;19.53;36.90;100418.63;5078913;27;45993;-46
2022/03/11 08:41:32;;;;;;;;;9.25;6.25;;;;;19.55;36.54;100412.34;5079102;27;45215;-47
2022/03/11 08:43:59;;;;;;;;;7.00;5.25;;;;;19.58;36.39;100408.66;5078019;28;45652;-46
2022/03/11 08:46:25;;;;;;;;;8.00;5.00;;;;;19.59;36.99;100402.47;5078829;27;46047;-45
2022/03/11 08:48:50;;;;;;;;;7.50;6.00;;;;;19.63;36.72;100410.09;5078703;27;45464;-47
2022/03/11 08:51:16;;;;;;;;;4.00;4.00;;;;;19.65;36.80;100407.41;5078852;27;45395;-47
2022/03/11 08:53:41;;;;;;;;;7.00;5.50;;;;;19.66;36.22;100409.09;5079251;27;45243;-49
2022/03/11 08:56:06;;;;;;;;;8.00;6.00;;;;;19.69;36.24;100403.63;5078549;27;46559;-45
2022/03/11 08:58:32;;;;;;;;;9.50;7.00;;;;;19.71;36.70;100401.75;5078525;27;45401;-47
2022/03/11 09:00:57;;;;;;;;;9.00;8.00;;;;;19.72;36.14;100402.63;5078403;27;45243;-46
2022/03/11 09:03:22;;;;;;;;;7.75;5.00;;;;;19.72;36.15;100394.75;5077930;28;45643;-51
2022/03/11 09:05:48;;;;;;;;;7.00;5.50;;;;;19.75;36.18;100390.16;5078044;27;46115;-47
2022/03/11 09:08:14;;;;;;;;;5.50;5.50;;;;;19.75;36.15;100395.41;5078522;27;45326;-48
2022/03/11 09:10:39;;;;;;;;;7.75;7.75;;;;;19.77;36.23;100396.16;5078333;27;45310;-44
2022/03/11 09:13:05;;;;;;;;;7.00;5.25;;;;;19.78;36.37;100384.72;5078742;27;45302;-48
2022/03/11 09:15:30;;;;;;;;;6.00;6.00;;;;;19.78;36.47;100382.09;5078133;27;46495;-49
2022/03/11 09:17:56;;;;;;;;;6.75;5.00;;;;;19.80;36.38;100374.09;5078325;27;45187;-47
2022/03/11 09:20:22;;;;;;;;;7.00;6.25;;;;;19.82;35.83;100390.63;5078512;27;45237;-47
2022/03/11 09:22:48;;;;;;;;;6.25;4.00;;;;;19.82;35.68;100382.75;5077323;28;45574;-48
2022/03/11 09:25:15;;;;;;;;;6.25;5.00;;;;;19.83;35.64;100383.56;5078379;27;45975;-50
2022/03/11 09:27:40;;;;;;;;;4.50;4.00;;;;;19.85;35.83;100368.56;5078259;27;45465;-48
2022/03/11 09:30:07;;;;;;;;;4.25;3.00;;;;;19.86;36.20;100365.84;5078355;27;45413;-49
2022/03/11 09:32:34;;;;;;;;;8.75;6.00;;;;;19.87;35.81;100371.97;5078092;27;45578;-47
2022/03/11 09:34:59;;;;;;;;;5.00;3.25;;;;;19.88;35.73;100382.38;5076536;27;45713;-43
2022/03/11 09:37:28;;;;;;;;;5.00;4.00;;;;;19.89;35.59;100378.00;5077870;27;45426;-50
2022/03/11 09:39:54;;;;;;;;;4.00;4.00;;;;;19.91;35.74;100378.72;5076659;28;45395;-44
2022/03/11 09:42:20;;;;;;;;;4.00;4.00;;;;;19.93;36.00;100376.84;5078155;27;45513;-46
2022/03/11 09:44:54;;;;;;;;;5.00;4.50;;;;;19.94;35.78;100381.19;5078196;27;45595;-46
2022/03/11 09:47:20;;;;;;;;;5.25;4.25;;;;;19.94;35.98;100370.66;5076663;27;45765;-48
2022/03/11 09:49:48;;;;;;;;;3.75;3.75;;;;;19.95;35.86;100368.91;5078363;27;45425;-47
2022/03/11 09:52:15;;;;;;;;;3.75;3.50;;;;;19.94;35.51;100368.03;5078523;27;45555;-47
2022/03/11 09:54:40;;;;;;;;;3.00;3.00;;;;;19.94;35.12;100357.50;5077471;27;46502;-48
2022/03/11 09:57:06;;;;;;;;;9.25;5.00;;;;;19.95;35.78;100361.00;5077665;27;45154;-46
2022/03/11 09:59:31;;;;;;;;;5.00;4.75;;;;;19.95;35.69;100361.00;5077725;27;45359;-46
2022/03/11 10:01:57;;;;;;;;;4.00;3.00;;;;;19.94;35.84;100357.50;5077929;27;45252;-45
2022/03/11 10:04:24;;;;;;;;;4.75;4.75;;;;;19.95;35.42;100353.94;5077467;28;46001;-47
2022/03/11 10:06:51;;;;;;;;;3.00;3.00;;;;;19.95;35.15;100359.19;5077552;27;45754;-46
2022/03/11 10:09:20;;;;;;;;;2.75;2.75;;;;;19.93;35.51;100337.41;5077845;27;45388;-51
2022/03/11 10:11:51;;;;;;;;;4.50;3.75;;;;;19.95;35.16;100308.41;5078197;27;45402;-46
2022/03/11 10:14:17;;;;;;;;;2.50;2.50;;;;;19.92;34.94;100325.19;5077380;27;46426;-46
2022/03/11 10:16:46;;;;;;;;;3.75;3.00;;;;;19.91;35.14;100334.00;5076061;28;45518;-51
2022/03/11 10:19:14;;;;;;;;;4.50;3.25;;;;;19.90;35.40;100335.81;5074750;27;45378;-46
2022/03/11 10:21:42;;;;;;;;;3.50;3.50;;;;;19.90;35.18;100330.56;5077079;27;45639;-45
2022/03/11 10:24:13;;;;;;;;;3.50;3.00;;;;;19.92;35.66;100344.47;5075472;28;46839;-46
2022/03/11 10:26:42;;;;;;;;;4.00;2.75;;;;;19.96;35.25;100344.25;5076025;27;45762;-46
2022/03/11 10:29:16;;;;;;;;;4.50;2.75;;;;;20.01;35.49;100331.69;5076932;27;45433;-47
2022/03/11 10:31:45;;;;;;;;;2.50;2.50;;;;;20.03;35.26;100335.91;5077258;27;45445;-48
2022/03/11 10:34:29;;;;;;;;;4.00;3.50;;;;;20.10;34.98;100328.47;5076444;27;46084;-44
2022/03/11 10:36:55;;;;;;;;;3.00;2.25;;;;;20.16;34.86;100322.00;5076712;27;45847;-47
2022/03/11 10:39:26;;;;;;;;;4.00;4.00;;;;;20.25;35.01;100326.69;5076837;27;45291;-46
2022/03/11 10:41:53;;;;;;;;;2.00;1.75;;;;;20.32;34.60;100349.06;5077250;27;45600;-48
2022/03/11 10:44:25;;;;;;;;;2.50;2.00;;;;;20.39;34.97;100363.53;5076448;27;47287;-47
2022/03/11 10:46:51;;;;;;;;;4.00;3.00;;;;;20.47;34.82;100351.66;5076552;27;45450;-46
2022/03/11 10:49:35;;;;;;;;;3.00;3.00;;;;;20.51;35.06;100347.91;5076842;27;45404;-46
2022/03/11 10:52:02;;;;;;;;;4.00;4.00;;;;;20.59;34.93;100324.56;5075570;28;45833;-49
2022/03/11 10:54:29;;;;;;;;;2.00;2.00;;;;;20.64;35.12;100311.09;5076702;27;47039;-48
2022/03/11 10:56:56;;;;;;;;;2.00;2.00;;;;;20.67;35.21;100332.81;5076772;27;45386;-49
2022/03/11 10:59:21;;;;;;;;;2.00;2.00;;;;;20.70;35.68;100339.69;5074609;27;45592;-46
2022/03/11 11:01:50;;;;;;;;;2.33;2.33;;;;;20.74;35.70;100351.72;5075820;27;45469;-45
2022/03/11 11:04:17;;;;;;;;;3.00;3.00;;;;;20.78;36.16;100368.19;5076515;27;45417;-42
2022/03/11 11:06:44;;;;;;;;;2.50;1.75;;;;;20.82;36.48;100380.22;5076370;27;46046;-44
2022/03/11 11:09:12;;;;;;;;;2.00;2.00;;;;;20.85;37.28;100378.22;5074398;27;45907;-44
2022/03/11 11:11:38;;;;;;;;;2.50;1.25;;;;;20.88;37.60;100364.03;5074897;28;45399;-44
2022/03/11 11:14:07;;;;;;;;;2.50;1.50;;;;;20.91;37.56;100355.91;5076113;28;45421;-43